createdAt,value
2018-01-27T00:00:06.735Z,89.74
2018-01-27T00:02:34.320Z,89.74
2018-01-27T00:05:02.006Z,89.84
2018-01-27T00:07:29.553Z,89.92
2018-01-27T00:09:57.137Z,90.10
2018-01-27T00:12:24.755Z,90.14
2018-01-27T00:14:52.384Z,90.19
2018-01-27T00:17:19.961Z,90.05
2018-01-27T00:19:47.582Z,90.04
2018-01-27T00:22:15.168Z,90.17
2018-01-27T00:24:42.759Z,89.98
2018-01-27T00:27:10.445Z,90.07
2018-01-27T00:29:38.025Z,90.15
2018-01-27T00:32:05.608Z,90.08
2018-01-27T00:34:33.464Z,89.73
2018-01-27T00:37:01.026Z,89.33
2018-01-27T00:39:28.639Z,88.95
2018-01-27T00:41:56.248Z,88.85
2018-01-27T00:44:23.829Z,88.80
2018-01-27T00:46:51.451Z,88.64
2018-01-27T00:49:19.066Z,88.76
2018-01-27T00:51:46.645Z,89.05
2018-01-27T00:54:14.381Z,88.94
2018-01-27T00:56:41.998Z,88.59
2018-01-27T00:59:09.696Z,88.65
2018-01-27T01:01:37.354Z,88.76
2018-01-27T01:04:04.984Z,89.27
2018-01-27T01:06:32.546Z,89.40
2018-01-27T01:09:00.186Z,89.40
2018-01-27T01:11:27.802Z,89.17
2018-01-27T01:13:55.484Z,89.20
2018-01-27T01:16:23.090Z,89.16
2018-01-27T01:18:50.696Z,89.36
2018-01-27T01:21:18.267Z,89.40
2018-01-27T01:23:45.902Z,89.46
2018-01-27T01:26:13.503Z,89.36
2018-01-27T01:28:41.215Z,89.22
2018-01-27T01:31:09.066Z,89.05
2018-01-27T01:33:36.751Z,89.11
2018-01-27T01:36:04.401Z,89.15
2018-01-27T01:38:31.976Z,89.16
2018-01-27T01:40:59.655Z,89.10
2018-01-27T01:43:32.783Z,89.02
2018-01-27T01:46:00.402Z,88.99
2018-01-27T01:48:27.983Z,88.84
2018-01-27T01:50:55.715Z,88.78
2018-01-27T01:53:23.350Z,88.63
2018-01-27T01:55:51.031Z,88.59
2018-01-27T01:58:18.607Z,88.91
2018-01-27T02:00:46.348Z,89.00
2018-01-27T02:03:14.023Z,89.06
2018-01-27T02:05:41.601Z,88.78
2018-01-27T02:08:09.228Z,88.69
2018-01-27T02:10:36.842Z,88.51
2018-01-27T02:13:04.440Z,88.56
2018-01-27T02:15:32.066Z,88.94
2018-01-27T02:17:59.678Z,88.79
2018-01-27T02:20:27.254Z,88.38
2018-01-27T02:22:54.880Z,88.16
2018-01-27T02:25:22.441Z,88.15
2018-01-27T02:27:50.229Z,88.11
2018-01-27T02:30:17.842Z,88.45
2018-01-27T02:32:45.567Z,88.23
2018-01-27T02:35:13.139Z,88.16
2018-01-27T02:37:40.890Z,88.30
2018-01-27T02:40:08.581Z,88.48
2018-01-27T02:42:36.419Z,87.90
2018-01-27T02:45:04.039Z,87.90
2018-01-27T02:47:31.622Z,88.12
2018-01-27T02:49:59.190Z,88.32
2018-01-27T02:52:26.794Z,88.67
2018-01-27T02:54:54.404Z,88.67
2018-01-27T02:57:22.011Z,88.62
2018-01-27T02:59:49.641Z,88.43
2018-01-27T03:02:17.308Z,88.67
2018-01-27T03:04:44.958Z,88.61
2018-01-27T03:07:12.613Z,88.73
2018-01-27T03:09:40.307Z,88.76
2018-01-27T03:12:07.889Z,88.67
2018-01-27T03:14:35.601Z,88.52
2018-01-27T03:17:03.180Z,88.22
2018-01-27T03:19:30.767Z,88.24
2018-01-27T03:21:58.369Z,88.52
2018-01-27T03:24:26.046Z,88.52
2018-01-27T03:26:53.610Z,88.48
2018-01-27T03:29:21.210Z,88.47
2018-01-27T03:31:48.774Z,88.47
2018-01-27T03:34:16.507Z,88.51
2018-01-27T03:36:44.115Z,88.52
2018-01-27T03:39:11.679Z,88.56
2018-01-27T03:41:39.249Z,88.53
2018-01-27T03:44:07.027Z,88.45
2018-01-27T03:46:34.599Z,88.46
2018-01-27T03:49:02.168Z,88.47
2018-01-27T03:51:29.919Z,88.31
2018-01-27T03:53:57.580Z,88.32
2018-01-27T03:56:25.143Z,88.25
2018-01-27T03:58:52.859Z,88.29
2018-01-27T04:01:20.587Z,88.53
2018-01-27T04:03:48.234Z,88.45
2018-01-27T04:06:15.883Z,88.55
2018-01-27T04:08:43.779Z,88.98
2018-01-27T04:11:11.342Z,88.99
2018-01-27T04:13:39.087Z,88.80
2018-01-27T04:16:06.658Z,88.60
2018-01-27T04:18:34.272Z,88.20
2018-01-27T04:21:01.888Z,87.55
2018-01-27T04:23:29.453Z,87.29
2018-01-27T04:25:57.024Z,87.22
2018-01-27T04:28:24.647Z,87.14
2018-01-27T04:30:52.276Z,87.09
2018-01-27T04:33:19.853Z,87.22
2018-01-27T04:35:47.470Z,87.39
2018-01-27T04:38:15.037Z,87.37
2018-01-27T04:40:42.614Z,87.26
2018-01-27T04:43:10.229Z,87.05
2018-01-27T04:45:37.816Z,87.17
2018-01-27T04:48:05.403Z,87.36
2018-01-27T04:50:33.005Z,87.14
2018-01-27T04:53:00.646Z,87.19
2018-01-27T04:55:28.231Z,87.23
2018-01-27T04:57:55.830Z,87.08
2018-01-27T05:00:23.440Z,87.30
2018-01-27T05:02:51.108Z,87.55
2018-01-27T05:05:18.728Z,87.56
2018-01-27T05:07:46.441Z,87.00
2018-01-27T05:10:14.043Z,86.45
2018-01-27T05:12:41.652Z,86.55
2018-01-27T05:15:09.609Z,86.78
2018-01-27T05:17:37.181Z,87.25
2018-01-27T05:20:04.768Z,87.46
2018-01-27T05:22:32.397Z,87.52
2018-01-27T05:25:00.079Z,87.80
2018-01-27T05:27:27.656Z,87.85
2018-01-27T05:29:55.262Z,87.83
2018-01-27T05:32:22.851Z,87.77
2018-01-27T05:34:50.442Z,86.87
2018-01-27T05:37:18.071Z,86.70
2018-01-27T05:39:45.667Z,86.74
2018-01-27T05:42:13.503Z,86.81
2018-01-27T05:44:41.085Z,86.88
2018-01-27T05:47:08.666Z,86.63
2018-01-27T05:49:36.304Z,86.40
2018-01-27T05:52:03.908Z,86.14
2018-01-27T05:54:31.480Z,86.14
2018-01-27T05:56:59.052Z,86.34
2018-01-27T05:59:26.709Z,86.10
2018-01-27T06:01:54.440Z,85.68
2018-01-27T06:04:22.036Z,85.33
2018-01-27T06:06:49.645Z,84.91
2018-01-27T06:09:17.225Z,84.40
2018-01-27T06:11:44.941Z,84.03
2018-01-27T06:14:12.555Z,83.72
2018-01-27T06:16:40.125Z,83.22
2018-01-27T06:19:07.809Z,82.68
2018-01-27T06:21:35.458Z,81.34
2018-01-27T06:24:03.082Z,77.99
2018-01-27T06:26:30.675Z,73.24
2018-01-27T06:28:58.653Z,69.54
2018-01-27T06:31:26.240Z,66.55
2018-01-27T06:33:53.820Z,64.26
2018-01-27T06:36:21.426Z,61.81
2018-01-27T06:38:48.999Z,60.48
2018-01-27T06:41:16.575Z,59.08
2018-01-27T06:43:44.168Z,58.33
2018-01-27T06:46:11.752Z,57.20
2018-01-27T06:48:39.336Z,55.19
2018-01-27T06:51:06.946Z,53.67
2018-01-27T06:53:34.528Z,50.46
2018-01-27T06:56:02.112Z,49.00
2018-01-27T06:58:29.782Z,48.95
2018-01-27T07:00:57.442Z,49.46
2018-01-27T07:03:25.015Z,49.91
2018-01-27T07:05:52.653Z,48.63
2018-01-27T07:08:20.241Z,47.35
2018-01-27T07:10:47.828Z,47.28
2018-01-27T07:13:15.435Z,46.12
2018-01-27T07:15:43.015Z,45.24
2018-01-27T07:18:10.589Z,45.17
2018-01-27T07:20:38.231Z,45.15
2018-01-27T07:23:05.815Z,46.58
2018-01-27T07:25:33.397Z,46.82
2018-01-27T07:28:01.016Z,45.75
2018-01-27T07:30:28.599Z,44.96
2018-01-27T07:32:56.222Z,43.43
2018-01-27T07:35:23.856Z,44.18
2018-01-27T07:37:51.486Z,43.61
2018-01-27T07:40:19.073Z,44.27
2018-01-27T07:42:46.702Z,44.19
2018-01-27T07:45:14.267Z,46.71
2018-01-27T07:47:41.839Z,53.15
2018-01-27T07:50:09.451Z,44.74
2018-01-27T07:52:37.050Z,47.37
2018-01-27T07:55:04.645Z,44.50
2018-01-27T07:57:32.254Z,44.08
2018-01-27T07:59:59.831Z,43.57
2018-01-27T08:02:27.416Z,43.30
2018-01-27T08:04:55.142Z,43.96
2018-01-27T08:07:22.724Z,44.08
2018-01-27T08:09:50.303Z,42.38
2018-01-27T08:12:17.990Z,41.46
2018-01-27T08:14:45.693Z,41.07
2018-01-27T08:17:13.394Z,39.86
2018-01-27T08:19:41.016Z,40.33
2018-01-27T08:22:08.742Z,41.49
2018-01-27T08:24:36.329Z,41.28
2018-01-27T08:27:03.956Z,40.57
2018-01-27T08:29:31.538Z,40.55
2018-01-27T08:31:59.283Z,39.43
2018-01-27T08:34:26.887Z,39.20
2018-01-27T08:36:54.485Z,39.23
2018-01-27T08:39:22.047Z,40.33
2018-01-27T08:41:49.627Z,41.48
2018-01-27T08:44:17.179Z,40.25
2018-01-27T08:46:44.756Z,39.07
2018-01-27T08:49:12.437Z,39.65
2018-01-27T08:51:40.012Z,39.52
2018-01-27T08:54:07.678Z,38.61
2018-01-27T08:56:35.288Z,39.59
2018-01-27T08:59:02.852Z,37.02
2018-01-27T09:01:30.510Z,38.62
2018-01-27T09:03:58.106Z,36.70
2018-01-27T09:06:25.685Z,37.01
2018-01-27T09:08:53.289Z,37.89
2018-01-27T09:11:20.901Z,38.31
2018-01-27T09:13:48.471Z,39.07
2018-01-27T09:16:16.039Z,37.04
2018-01-27T09:18:43.646Z,36.02
2018-01-27T09:21:11.230Z,36.45
2018-01-27T09:23:38.814Z,37.21
2018-01-27T09:26:06.436Z,35.64
2018-01-27T09:28:33.993Z,36.37
2018-01-27T09:31:01.640Z,36.43
2018-01-27T09:33:29.256Z,35.57
2018-01-27T09:35:56.831Z,34.65
2018-01-27T09:38:24.384Z,35.35
2018-01-27T09:40:52.030Z,35.24
2018-01-27T09:43:19.595Z,34.44
2018-01-27T09:45:47.156Z,34.44
2018-01-27T09:48:14.762Z,35.29
2018-01-27T09:50:42.336Z,34.97
2018-01-27T09:53:09.921Z,35.69
2018-01-27T09:55:37.520Z,33.71
2018-01-27T09:58:05.082Z,34.46
2018-01-27T10:00:32.655Z,34.40
2018-01-27T10:03:00.249Z,33.77
2018-01-27T10:05:27.964Z,32.57
2018-01-27T10:07:55.574Z,33.50
2018-01-27T10:10:23.181Z,32.99
2018-01-27T10:12:50.902Z,31.87
2018-01-27T10:15:18.461Z,32.11
2018-01-27T10:17:46.049Z,32.42
2018-01-27T10:20:13.616Z,31.94
2018-01-27T10:22:41.168Z,30.95
2018-01-27T10:25:08.802Z,29.61
2018-01-27T10:27:36.379Z,28.63
2018-01-27T10:30:03.915Z,28.58
2018-01-27T10:32:31.603Z,29.04
2018-01-27T10:34:59.183Z,30.33
2018-01-27T10:37:26.741Z,29.67
2018-01-27T10:39:54.359Z,28.03
2018-01-27T10:42:21.973Z,27.65
2018-01-27T10:44:49.598Z,28.30
2018-01-27T10:47:17.188Z,29.91
2018-01-27T10:49:44.834Z,28.85
2018-01-27T10:52:12.443Z,28.53
2018-01-27T10:54:40.060Z,27.96
2018-01-27T10:57:07.617Z,26.95
2018-01-27T10:59:35.185Z,27.23
2018-01-27T11:02:02.804Z,27.63
2018-01-27T11:04:30.376Z,28.30
2018-01-27T11:06:57.963Z,28.10
2018-01-27T11:09:25.567Z,27.84
2018-01-27T11:11:53.152Z,26.41
2018-01-27T11:14:20.736Z,25.79
2018-01-27T11:16:48.361Z,26.80
2018-01-27T11:19:15.940Z,25.50
2018-01-27T11:21:43.513Z,25.69
2018-01-27T11:24:11.160Z,26.33
2018-01-27T11:26:38.765Z,26.76
2018-01-27T11:29:06.326Z,26.16
2018-01-27T11:31:33.940Z,25.78
2018-01-27T11:34:01.529Z,26.25
2018-01-27T11:36:29.082Z,25.57
2018-01-27T11:38:56.699Z,26.23
2018-01-27T11:41:24.281Z,26.47
2018-01-27T11:43:51.870Z,27.28
2018-01-27T11:46:19.470Z,26.52
2018-01-27T11:48:47.030Z,27.65
2018-01-27T11:51:14.596Z,30.74
2018-01-27T11:53:42.242Z,30.03
2018-01-27T11:56:09.865Z,28.89
2018-01-27T11:58:37.430Z,27.66
2018-01-27T12:01:05.168Z,26.26
2018-01-27T12:03:32.735Z,26.58
2018-01-27T12:06:00.319Z,27.45
2018-01-27T12:08:27.931Z,29.01
2018-01-27T12:10:55.600Z,30.59
2018-01-27T12:13:23.299Z,31.62
2018-01-27T12:15:50.878Z,32.56
2018-01-27T12:18:18.443Z,35.69
2018-01-27T12:20:46.013Z,35.19
2018-01-27T12:23:13.641Z,36.45
2018-01-27T12:25:41.986Z,34.87
2018-01-27T12:28:09.554Z,34.62
2018-01-27T12:30:37.162Z,33.60
2018-01-27T12:33:04.729Z,35.63
2018-01-27T12:35:32.281Z,36.61
2018-01-27T12:37:59.962Z,35.25
2018-01-27T12:40:27.614Z,34.29
2018-01-27T12:42:55.181Z,35.21
2018-01-27T12:45:22.788Z,37.21
2018-01-27T12:47:50.372Z,35.22
2018-01-27T12:50:17.970Z,34.85
2018-01-27T12:52:45.559Z,36.23
2018-01-27T12:55:13.121Z,35.57
2018-01-27T12:57:40.691Z,33.04
2018-01-27T13:00:08.311Z,30.90
2018-01-27T13:02:38.427Z,31.69
2018-01-27T13:05:06.135Z,34.22
2018-01-27T13:07:33.745Z,35.34
2018-01-27T13:10:01.371Z,33.84
2018-01-27T13:12:28.943Z,33.51
2018-01-27T13:14:56.518Z,32.21
2018-01-27T13:17:24.087Z,32.12
2018-01-27T13:19:51.674Z,33.19
2018-01-27T13:22:19.301Z,33.25
2018-01-27T13:24:46.859Z,33.45
2018-01-27T13:27:14.431Z,33.05
2018-01-27T13:29:42.038Z,32.32
2018-01-27T13:32:09.605Z,32.23
2018-01-27T13:34:37.208Z,34.36
2018-01-27T13:37:04.813Z,34.70
2018-01-27T13:39:32.383Z,37.30
2018-01-27T13:41:59.947Z,36.13
2018-01-27T13:44:27.552Z,36.03
2018-01-27T13:46:55.135Z,37.57
2018-01-27T13:49:22.696Z,37.26
2018-01-27T13:51:50.330Z,38.23
2018-01-27T13:54:17.900Z,39.64
2018-01-27T13:56:45.529Z,40.41
2018-01-27T13:59:13.139Z,38.89
2018-01-27T14:01:41.373Z,40.85
2018-01-27T14:04:12.030Z,39.81
2018-01-27T14:06:39.914Z,41.50
2018-01-27T14:09:07.980Z,42.30
2018-01-27T14:11:35.793Z,43.18
2018-01-27T14:14:03.447Z,42.96
2018-01-27T14:16:31.085Z,43.93
2018-01-27T14:18:58.676Z,46.13
2018-01-27T14:21:26.272Z,48.00
2018-01-27T14:23:53.890Z,49.84
2018-01-27T14:26:21.503Z,49.11
2018-01-27T14:28:49.136Z,51.35
2018-01-27T14:31:16.720Z,51.95
2018-01-27T14:33:44.299Z,53.63
2018-01-27T14:36:11.926Z,53.83
2018-01-27T14:38:39.493Z,54.71
2018-01-27T14:41:07.060Z,55.47
2018-01-27T14:43:34.647Z,56.85
2018-01-27T14:46:02.322Z,58.04
2018-01-27T14:48:29.861Z,58.74
2018-01-27T14:50:57.503Z,58.75
2018-01-27T14:53:25.055Z,59.40
2018-01-27T14:55:52.682Z,60.57
2018-01-27T14:58:20.296Z,60.56
2018-01-27T15:00:47.863Z,61.16
2018-01-27T15:03:15.436Z,61.43
2018-01-27T15:05:43.077Z,61.26
2018-01-27T15:08:10.639Z,61.16
2018-01-27T15:10:38.219Z,62.27
2018-01-27T15:13:05.838Z,63.61
2018-01-27T15:15:33.472Z,63.30
2018-01-27T15:18:01.047Z,63.65
2018-01-27T15:20:28.743Z,63.91
2018-01-27T15:22:56.345Z,65.39
2018-01-27T15:25:23.927Z,66.31
2018-01-27T15:27:51.542Z,66.10
2018-01-27T15:30:19.099Z,66.64
2018-01-27T15:32:46.710Z,67.54
2018-01-27T15:35:14.299Z,68.08
2018-01-27T15:37:41.862Z,68.95
2018-01-27T15:40:09.431Z,69.92
2018-01-27T15:42:37.088Z,69.84
2018-01-27T15:45:04.737Z,71.03
2018-01-27T15:47:32.311Z,70.96
2018-01-27T15:50:00.058Z,71.45
2018-01-27T15:52:27.717Z,72.51
2018-01-27T15:54:58.027Z,73.20
2018-01-27T15:57:25.715Z,74.03
2018-01-27T15:59:53.337Z,74.98
2018-01-27T16:02:20.900Z,73.86
2018-01-27T16:04:48.519Z,73.96
2018-01-27T16:07:16.098Z,74.70
2018-01-27T16:09:43.670Z,75.88
2018-01-27T16:12:11.297Z,76.34
2018-01-27T16:14:38.859Z,77.17
2018-01-27T16:17:06.438Z,77.74
2018-01-27T16:19:34.061Z,78.06
2018-01-27T16:22:01.645Z,78.85
2018-01-27T16:24:29.254Z,78.83
2018-01-27T16:26:58.248Z,78.60
2018-01-27T16:29:25.956Z,77.52
2018-01-27T16:31:55.334Z,77.84
2018-01-27T16:34:24.516Z,78.36
2018-01-27T16:36:55.317Z,78.43
2018-01-27T16:39:26.726Z,78.79
2018-01-27T16:41:56.091Z,79.39
2018-01-27T16:44:26.560Z,80.09
2018-01-27T16:46:54.397Z,80.23
2018-01-27T16:49:22.031Z,80.61
2018-01-27T16:51:49.596Z,80.76
2018-01-27T16:54:17.223Z,80.62
2018-01-27T16:56:44.791Z,80.24
2018-01-27T16:59:12.364Z,80.83
2018-01-27T17:01:39.974Z,81.26
2018-01-27T17:04:07.630Z,81.58
2018-01-27T17:06:35.227Z,81.23
2018-01-27T17:09:02.864Z,81.51
2018-01-27T17:11:30.658Z,82.23
2018-01-27T17:13:58.194Z,82.48
2018-01-27T17:16:25.789Z,82.09
2018-01-27T17:18:53.331Z,81.76
2018-01-27T17:21:20.908Z,82.17
2018-01-27T17:23:48.511Z,82.71
2018-01-27T17:26:16.082Z,83.36
2018-01-27T17:28:43.647Z,83.85
2018-01-27T17:31:11.321Z,83.89
2018-01-27T17:33:38.870Z,84.08
2018-01-27T17:36:06.425Z,83.88
2018-01-27T17:38:34.067Z,83.89
2018-01-27T17:41:01.647Z,84.42
2018-01-27T17:43:29.211Z,84.55
2018-01-27T17:45:56.830Z,84.54
2018-01-27T17:48:24.405Z,84.89
2018-01-27T17:50:51.987Z,85.23
2018-01-27T17:53:19.614Z,85.22
2018-01-27T17:55:47.208Z,85.28
2018-01-27T17:58:14.838Z,85.15
2018-01-27T18:00:42.430Z,85.44
2018-01-27T18:03:09.994Z,85.44
2018-01-27T18:05:37.673Z,85.78
2018-01-27T18:08:05.285Z,85.78
2018-01-27T18:10:32.865Z,85.98
2018-01-27T18:13:00.427Z,86.12
2018-01-27T18:15:28.055Z,86.63
2018-01-27T18:17:55.725Z,87.35
2018-01-27T18:20:23.295Z,86.55
2018-01-27T18:22:50.915Z,86.99
2018-01-27T18:25:18.515Z,86.79
2018-01-27T18:27:46.090Z,87.12
2018-01-27T18:30:13.692Z,87.44
2018-01-27T18:32:41.284Z,87.07
2018-01-27T18:35:08.863Z,87.16
2018-01-27T18:37:36.460Z,87.22
2018-01-27T18:40:04.046Z,87.52
2018-01-27T18:42:31.684Z,87.97
2018-01-27T18:44:59.313Z,88.22
2018-01-27T18:47:26.878Z,87.93
2018-01-27T18:49:54.457Z,87.72
2018-01-27T18:52:22.059Z,87.82
2018-01-27T18:54:49.636Z,88.08
2018-01-27T18:57:17.852Z,88.39
2018-01-27T18:59:48.441Z,88.28
2018-01-27T19:02:16.152Z,88.26
2018-01-27T19:04:43.727Z,88.54
2018-01-27T19:07:11.329Z,88.41
2018-01-27T19:09:38.921Z,88.35
2018-01-27T19:12:06.485Z,88.66
2018-01-27T19:14:34.131Z,88.72
2018-01-27T19:17:01.733Z,88.95
2018-01-27T19:19:29.286Z,89.21
2018-01-27T19:21:56.935Z,89.72
2018-01-27T19:24:24.527Z,89.65
2018-01-27T19:26:52.118Z,89.68
2018-01-27T19:29:19.718Z,89.51
2018-01-27T19:31:47.288Z,89.37
2018-01-27T19:34:14.850Z,89.37
2018-01-27T19:36:42.458Z,89.31
2018-01-27T19:39:10.031Z,89.45
2018-01-27T19:41:37.606Z,89.69
2018-01-27T19:44:05.221Z,89.85
2018-01-27T19:46:32.817Z,89.85
2018-01-27T19:49:00.427Z,90.08
2018-01-27T19:51:28.116Z,89.72
2018-01-27T19:53:55.683Z,89.57
2018-01-27T19:56:23.254Z,89.71
2018-01-27T19:58:50.859Z,89.79
2018-01-27T20:01:18.422Z,90.14
2018-01-27T20:03:46.019Z,90.18
2018-01-27T20:06:13.620Z,89.95
2018-01-27T20:08:41.232Z,89.73
2018-01-27T20:11:08.799Z,89.72
2018-01-27T20:13:36.388Z,89.63
2018-01-27T20:16:03.961Z,89.81
2018-01-27T20:18:31.766Z,89.75
2018-01-27T20:20:59.473Z,89.61
2018-01-27T20:23:27.042Z,89.65
2018-01-27T20:25:54.619Z,89.85
2018-01-27T20:28:22.236Z,90.15
2018-01-27T20:30:49.812Z,90.40
2018-01-27T20:33:17.405Z,90.64
2018-01-27T20:35:45.017Z,90.74
2018-01-27T20:38:12.611Z,90.90
2018-01-27T20:40:40.186Z,91.05
2018-01-27T20:43:07.797Z,91.18
2018-01-27T20:45:35.381Z,91.12
2018-01-27T20:48:02.947Z,90.91
2018-01-27T20:50:30.579Z,90.78
2018-01-27T20:52:58.188Z,90.88
2018-01-27T20:55:25.753Z,90.87
2018-01-27T20:57:53.364Z,90.99
2018-01-27T21:00:21.004Z,90.85
2018-01-27T21:02:48.625Z,91.01
2018-01-27T21:05:16.227Z,91.18
2018-01-27T21:07:43.806Z,91.01
2018-01-27T21:10:11.389Z,91.00
2018-01-27T21:12:39.016Z,90.96
2018-01-27T21:15:06.598Z,91.28
2018-01-27T21:17:34.202Z,91.24
2018-01-27T21:20:02.052Z,91.36
2018-01-27T21:22:29.698Z,91.29
2018-01-27T21:24:57.288Z,91.27
2018-01-27T21:27:24.903Z,91.45
2018-01-27T21:29:52.492Z,91.62
2018-01-27T21:32:20.121Z,91.62
2018-01-27T21:34:47.787Z,91.88
2018-01-27T21:37:15.396Z,91.72
2018-01-27T21:39:42.974Z,91.54
2018-01-27T21:42:11.485Z,91.59
2018-01-27T21:44:39.174Z,91.48
2018-01-27T21:47:06.750Z,91.53
2018-01-27T21:49:34.386Z,91.55
2018-01-27T21:52:01.976Z,91.57
2018-01-27T21:54:29.573Z,91.60
2018-01-27T21:56:57.221Z,91.51
2018-01-27T21:59:24.788Z,91.40
2018-01-27T22:01:52.363Z,91.54
2018-01-27T22:04:19.987Z,91.61
2018-01-27T22:06:47.564Z,91.61
2018-01-27T22:09:15.161Z,91.28
2018-01-27T22:11:42.818Z,91.26
2018-01-27T22:14:10.395Z,91.33
2018-01-27T22:16:37.996Z,91.48
2018-01-27T22:19:05.657Z,91.51
2018-01-27T22:21:33.261Z,91.74
2018-01-27T22:24:00.978Z,91.96
2018-01-27T22:26:28.808Z,91.68
2018-01-27T22:28:56.453Z,91.53
2018-01-27T22:31:24.018Z,91.49
2018-01-27T22:33:51.597Z,91.55
2018-01-27T22:36:19.266Z,91.54
2018-01-27T22:38:46.852Z,91.66
2018-01-27T22:41:14.422Z,91.58
2018-01-27T22:43:42.054Z,91.77
2018-01-27T22:46:09.631Z,91.62
2018-01-27T22:48:37.221Z,91.64
2018-01-27T22:51:04.835Z,91.19
2018-01-27T22:53:32.434Z,91.02
2018-01-27T22:55:59.994Z,91.05
2018-01-27T22:58:27.611Z,91.10
2018-01-27T23:01:00.776Z,91.20
2018-01-27T23:03:28.392Z,91.01
2018-01-27T23:05:55.969Z,91.04
2018-01-27T23:08:23.564Z,91.24
2018-01-27T23:10:51.252Z,91.21
2018-01-27T23:13:18.852Z,91.25
2018-01-27T23:15:53.238Z,91.14
2018-01-27T23:18:20.874Z,91.19
2018-01-27T23:20:48.450Z,91.14
2018-01-27T23:23:16.076Z,91.33
2018-01-27T23:25:43.630Z,91.27
2018-01-27T23:28:11.229Z,91.17
2018-01-27T23:30:38.841Z,91.26
2018-01-27T23:33:06.403Z,91.49
2018-01-27T23:35:33.984Z,91.14
2018-01-27T23:38:01.589Z,91.03
2018-01-27T23:40:29.188Z,90.84
2018-01-27T23:42:56.761Z,91.00
2018-01-27T23:45:24.375Z,91.08
2018-01-27T23:47:51.939Z,91.08
2018-01-27T23:50:19.494Z,91.05
2018-01-27T23:52:47.273Z,90.85
2018-01-27T23:55:14.974Z,90.75
2018-01-27T23:57:42.583Z,90.71
